Terminal Aerodrome Forecast
Issued by NWS

Current Version | Previous Version | Graphics & Text | Print | Product List | Glossary On
Versions: 1 2 3 4 5 6 7 8 9 10 11 12 13 14 15 16 17 18 19 20 21 22 23 24 25 26 27 28 29 30 31 32 33 34 35 36 37 38 39 40 41 42 43 44 45
000
FTUS41 KRNK 272339
TAFLWB
TAF
KLWB 272339Z 2800/2824 29006KT P6SM -SHSN SCT023 OVC035
      TEMPO 2800/2801 1 1/2SM -SHSN BR SCT015 OVC023
     FM280300 29005KT P6SM -SHSN SCT017 OVC025
      TEMPO 2809/2813 BKN017
     FM281400 28007KT P6SM BKN028
     FM281800 27006KT P6SM SCT030=

USA.gov is the U.S. government's official web portal to all federal, state and local government web resources and services.